sensor_id;sensor_type;location;lat;lon;timestamp;pressure;altitude;pressure_sealevel;temperature;humidity
22582;BME280;47125;48.542;9.052;2023-09-19T00:04:25;95725.13;;;19.85;73.59
22582;BME280;47125;48.542;9.052;2023-09-19T00:14:30;95725.53;;;19.92;73.28
22582;BME280;47125;48.542;9.052;2023-09-19T00:24:36;95730.75;;;19.61;74.19
22582;BME280;47125;48.542;9.052;2023-09-19T00:34:39;95729.56;;;19.21;75.16
22582;BME280;47125;48.542;9.052;2023-09-19T00:44:45;95726.09;;;19.02;75.37
22582;BME280;47125;48.542;9.052;2023-09-19T00:54:47;95734.00;;;18.66;76.96
22582;BME280;47125;48.542;9.052;2023-09-19T01:04:51;95707.81;;;18.80;75.67
22582;BME280;47125;48.542;9.052;2023-09-19T01:14:55;95716.44;;;18.96;75.58
22582;BME280;47125;48.542;9.052;2023-09-19T01:25:23;95729.13;;;19.14;74.93
22582;BME280;47125;48.542;9.052;2023-09-19T01:35:31;95733.81;;;18.95;75.45
22582;BME280;47125;48.542;9.052;2023-09-19T01:45:37;95749.63;;;18.69;76.96
22582;BME280;47125;48.542;9.052;2023-09-19T01:55:46;95758.25;;;19.22;74.52
22582;BME280;47125;48.542;9.052;2023-09-19T02:05:50;95765.84;;;19.20;74.73
22582;BME280;47125;48.542;9.052;2023-09-19T02:15:56;95778.47;;;19.11;75.17
22582;BME280;47125;48.542;9.052;2023-09-19T02:25:59;95760.63;;;18.59;76.66
22582;BME280;47125;48.542;9.052;2023-09-19T02:36:03;95775.81;;;18.92;75.49
22582;BME280;47125;48.542;9.052;2023-09-19T02:46:06;95771.84;;;18.85;75.53
22582;BME280;47125;48.542;9.052;2023-09-19T02:56:10;95783.25;;;18.82;75.10
22582;BME280;47125;48.542;9.052;2023-09-19T03:06:14;95801.47;;;19.27;73.69
22582;BME280;47125;48.542;9.052;2023-09-19T03:16:19;95804.34;;;19.17;74.22
22582;BME280;47125;48.542;9.052;2023-09-19T03:26:23;95814.47;;;19.44;73.23
22582;BME280;47125;48.542;9.052;2023-09-19T03:36:29;95810.59;;;18.99;74.54
22582;BME280;47125;48.542;9.052;2023-09-19T03:46:32;95817.13;;;18.79;76.05
22582;BME280;47125;48.542;9.052;2023-09-19T03:56:38;95823.97;;;19.09;76.97
22582;BME280;47125;48.542;9.052;2023-09-19T04:06:41;95804.41;;;18.18;82.36
22582;BME280;47125;48.542;9.052;2023-09-19T04:16:45;95811.19;;;18.96;79.12
22582;BME280;47125;48.542;9.052;2023-09-19T04:26:48;95805.25;;;18.94;78.15
22582;BME280;47125;48.542;9.052;2023-09-19T04:36:52;95810.34;;;19.14;76.42
22582;BME280;47125;48.542;9.052;2023-09-19T04:46:55;95825.31;;;18.93;76.59
22582;BME280;47125;48.542;9.052;2023-09-19T04:56:59;95827.63;;;18.99;76.38
22582;BME280;47125;48.542;9.052;2023-09-19T05:07:02;95841.84;;;18.73;77.55
22582;BME280;47125;48.542;9.052;2023-09-19T05:17:07;95839.13;;;19.10;76.07
22582;BME280;47125;48.542;9.052;2023-09-19T05:27:10;95849.59;;;19.16;75.48
22582;BME280;47125;48.542;9.052;2023-09-19T05:37:14;95861.41;;;19.20;75.02
22582;BME280;47125;48.542;9.052;2023-09-19T05:47:17;95874.81;;;18.93;76.36
22582;BME280;47125;48.542;9.052;2023-09-19T05:57:21;95896.47;;;18.93;76.56
22582;BME280;47125;48.542;9.052;2023-09-19T06:07:25;95903.84;;;18.88;77.21
22582;BME280;47125;48.542;9.052;2023-09-19T06:17:38;95920.38;;;18.67;78.49
22582;BME280;47125;48.542;9.052;2023-09-19T06:27:41;95934.53;;;18.59;79.52
22582;BME280;47125;48.542;9.052;2023-09-19T06:37:45;95955.91;;;19.22;77.47
22582;BME280;47125;48.542;9.052;2023-09-19T06:47:49;95952.38;;;18.60;80.85
22582;BME280;47125;48.542;9.052;2023-09-19T06:57:54;95966.38;;;18.67;81.38
22582;BME280;47125;48.542;9.052;2023-09-19T07:07:57;95957.78;;;18.60;80.27
22582;BME280;47125;48.542;9.052;2023-09-19T07:18:02;95961.97;;;19.14;79.42
22582;BME280;47125;48.542;9.052;2023-09-19T07:28:05;95982.72;;;19.00;80.01
22582;BME280;47125;48.542;9.052;2023-09-19T07:38:09;95994.69;;;19.36;78.40
22582;BME280;47125;48.542;9.052;2023-09-19T07:48:13;96005.44;;;19.04;78.24
22582;BME280;47125;48.542;9.052;2023-09-19T07:58:17;95995.47;;;19.18;76.05
22582;BME280;47125;48.542;9.052;2023-09-19T08:08:20;96012.00;;;18.98;73.81
22582;BME280;47125;48.542;9.052;2023-09-19T08:18:24;96024.25;;;19.33;73.22
22582;BME280;47125;48.542;9.052;2023-09-19T08:28:31;96041.38;;;19.70;71.03
22582;BME280;47125;48.542;9.052;2023-09-19T08:38:35;96051.88;;;19.35;70.43
22582;BME280;47125;48.542;9.052;2023-09-19T08:48:39;96061.94;;;19.29;66.45
22582;BME280;47125;48.542;9.052;2023-09-19T08:58:45;96058.34;;;18.91;66.29
22582;BME280;47125;48.542;9.052;2023-09-19T09:08:49;96064.66;;;19.29;65.21
22582;BME280;47125;48.542;9.052;2023-09-19T09:18:53;96076.59;;;18.81;63.46
22582;BME280;47125;48.542;9.052;2023-09-19T09:28:56;96065.09;;;18.94;62.55
22582;BME280;47125;48.542;9.052;2023-09-19T09:39:00;96073.44;;;19.21;62.07
22582;BME280;47125;48.542;9.052;2023-09-19T09:49:22;96075.66;;;19.14;61.30
22582;BME280;47125;48.542;9.052;2023-09-19T09:59:46;96065.41;;;19.58;60.21
22582;BME280;47125;48.542;9.052;2023-09-19T10:09:49;96066.06;;;20.20;58.98
22582;BME280;47125;48.542;9.052;2023-09-19T10:19:55;96061.53;;;20.66;57.05
22582;BME280;47125;48.542;9.052;2023-09-19T10:29:59;96054.94;;;21.40;54.84
22582;BME280;47125;48.542;9.052;2023-09-19T10:40:03;96045.44;;;21.52;52.42
22582;BME280;47125;48.542;9.052;2023-09-19T10:50:09;96052.72;;;21.78;53.28
22582;BME280;47125;48.542;9.052;2023-09-19T11:00:24;96050.19;;;22.40;51.68
22582;BME280;47125;48.542;9.052;2023-09-19T11:10:44;96045.63;;;22.27;51.51
22582;BME280;47125;48.542;9.052;2023-09-19T11:20:49;96049.06;;;21.96;48.04
22582;BME280;47125;48.542;9.052;2023-09-19T11:41:37;96040.44;;;22.17;49.51
22582;BME280;47125;48.542;9.052;2023-09-19T11:51:40;96031.59;;;21.89;50.39
22582;BME280;47125;48.542;9.052;2023-09-19T12:01:51;96029.34;;;22.88;48.25
22582;BME280;47125;48.542;9.052;2023-09-19T12:11:59;96011.94;;;23.63;45.67
22582;BME280;47125;48.542;9.052;2023-09-19T12:22:03;96007.13;;;24.03;44.84
22582;BME280;47125;48.542;9.052;2023-09-19T12:32:07;95998.09;;;25.00;44.32
22582;BME280;47125;48.542;9.052;2023-09-19T12:42:11;95986.31;;;24.62;41.54
22582;BME280;47125;48.542;9.052;2023-09-19T12:52:15;95988.06;;;24.66;43.20
22582;BME280;47125;48.542;9.052;2023-09-19T13:02:22;95993.09;;;24.56;42.84
22582;BME280;47125;48.542;9.052;2023-09-19T13:12:34;95985.59;;;24.91;43.45
22582;BME280;47125;48.542;9.052;2023-09-19T13:22:40;95987.53;;;24.90;41.54
22582;BME280;47125;48.542;9.052;2023-09-19T13:32:45;95970.38;;;24.81;43.02
22582;BME280;47125;48.542;9.052;2023-09-19T13:42:50;95972.16;;;25.36;43.12
22582;BME280;47125;48.542;9.052;2023-09-19T13:52:55;95962.88;;;25.57;42.78
22582;BME280;47125;48.542;9.052;2023-09-19T14:03:00;95949.78;;;25.13;42.46
22582;BME280;47125;48.542;9.052;2023-09-19T14:13:03;95961.59;;;24.58;43.82
22582;BME280;47125;48.542;9.052;2023-09-19T14:23:07;95955.22;;;24.37;42.55
22582;BME280;47125;48.542;9.052;2023-09-19T14:33:10;95942.91;;;24.23;41.96
22582;BME280;47125;48.542;9.052;2023-09-19T14:43:14;95928.97;;;23.38;43.97
22582;BME280;47125;48.542;9.052;2023-09-19T14:53:16;95916.94;;;23.22;44.07
22582;BME280;47125;48.542;9.052;2023-09-19T15:03:20;95908.72;;;23.05;44.16
22582;BME280;47125;48.542;9.052;2023-09-19T15:13:23;95912.25;;;23.14;44.33
22582;BME280;47125;48.542;9.052;2023-09-19T15:23:31;95912.44;;;23.09;44.08
22582;BME280;47125;48.542;9.052;2023-09-19T15:33:35;95911.78;;;23.12;45.10
22582;BME280;47125;48.542;9.052;2023-09-19T15:43:39;95897.28;;;22.77;45.41
22582;BME280;47125;48.542;9.052;2023-09-19T15:53:43;95902.28;;;22.92;45.10
22582;BME280;47125;48.542;9.052;2023-09-19T16:03:48;95902.81;;;23.03;45.51
22582;BME280;47125;48.542;9.052;2023-09-19T16:13:51;95892.00;;;22.72;44.38
22582;BME280;47125;48.542;9.052;2023-09-19T16:23:56;95884.59;;;22.64;43.26
22582;BME280;47125;48.542;9.052;2023-09-19T16:33:59;95879.44;;;22.54;43.09
22582;BME280;47125;48.542;9.052;2023-09-19T16:44:04;95870.84;;;22.30;41.78
22582;BME280;47125;48.542;9.052;2023-09-19T16:54:10;95869.97;;;22.12;42.61
22582;BME280;47125;48.542;9.052;2023-09-19T17:04:14;95876.38;;;21.85;43.17
22582;BME280;47125;48.542;9.052;2023-09-19T17:14:16;95872.06;;;22.15;42.72
22582;BME280;47125;48.542;9.052;2023-09-19T17:24:20;95884.44;;;21.68;43.20
22582;BME280;47125;48.542;9.052;2023-09-19T17:34:23;95889.97;;;21.85;42.31
22582;BME280;47125;48.542;9.052;2023-09-19T17:44:27;95899.75;;;21.64;42.85
22582;BME280;47125;48.542;9.052;2023-09-19T17:54:35;95897.41;;;21.71;42.96
22582;BME280;47125;48.542;9.052;2023-09-19T18:04:39;95889.47;;;21.61;43.24
22582;BME280;47125;48.542;9.052;2023-09-19T18:14:43;95904.94;;;21.30;44.28
22582;BME280;47125;48.542;9.052;2023-09-19T18:24:47;95904.72;;;21.49;44.46
22582;BME280;47125;48.542;9.052;2023-09-19T18:34:49;95907.44;;;21.26;44.83
22582;BME280;47125;48.542;9.052;2023-09-19T18:44:53;95920.25;;;21.70;44.51
22582;BME280;47125;48.542;9.052;2023-09-19T18:54:56;95928.16;;;21.58;45.06
22582;BME280;47125;48.542;9.052;2023-09-19T19:05:00;95942.81;;;21.71;45.00
22582;BME280;47125;48.542;9.052;2023-09-19T19:15:03;95949.41;;;21.78;45.28
22582;BME280;47125;48.542;9.052;2023-09-19T19:25:07;95955.31;;;21.94;45.95
22582;BME280;47125;48.542;9.052;2023-09-19T19:35:11;95951.69;;;21.85;45.50
22582;BME280;47125;48.542;9.052;2023-09-19T19:45:17;95973.81;;;21.70;46.58
22582;BME280;47125;48.542;9.052;2023-09-19T19:55:20;95974.69;;;21.43;47.42
22582;BME280;47125;48.542;9.052;2023-09-19T20:05:26;95989.16;;;21.03;48.50
22582;BME280;47125;48.542;9.052;2023-09-19T20:15:28;95988.88;;;21.54;48.40
22582;BME280;47125;48.542;9.052;2023-09-19T20:25:34;95994.34;;;21.40;48.85
22582;BME280;47125;48.542;9.052;2023-09-19T20:35:37;95983.19;;;21.28;48.57
22582;BME280;47125;48.542;9.052;2023-09-19T20:45:41;95988.75;;;21.23;49.31
22582;BME280;47125;48.542;9.052;2023-09-19T20:55:43;95994.69;;;21.11;49.90
22582;BME280;47125;48.542;9.052;2023-09-19T21:05:47;95996.47;;;20.88;51.38
22582;BME280;47125;48.542;9.052;2023-09-19T21:15:50;95982.91;;;20.75;52.01
22582;BME280;47125;48.542;9.052;2023-09-19T21:25:54;95986.03;;;20.55;52.50
22582;BME280;47125;48.542;9.052;2023-09-19T21:35:57;95985.78;;;20.38;53.27
22582;BME280;47125;48.542;9.052;2023-09-19T21:46:01;95984.38;;;20.26;53.28
22582;BME280;47125;48.542;9.052;2023-09-19T21:56:04;95979.88;;;20.17;54.09
22582;BME280;47125;48.542;9.052;2023-09-19T22:06:09;95983.78;;;20.11;54.86
22582;BME280;47125;48.542;9.052;2023-09-19T22:16:14;95982.88;;;20.02;55.38
22582;BME280;47125;48.542;9.052;2023-09-19T22:26:18;95992.88;;;19.88;55.60
22582;BME280;47125;48.542;9.052;2023-09-19T22:36:23;95979.56;;;19.72;56.04
22582;BME280;47125;48.542;9.052;2023-09-19T22:46:33;95984.63;;;19.60;56.37
22582;BME280;47125;48.542;9.052;2023-09-19T22:56:37;95983.13;;;19.68;57.23
22582;BME280;47125;48.542;9.052;2023-09-19T23:06:42;95978.25;;;19.51;57.48
22582;BME280;47125;48.542;9.052;2023-09-19T23:16:49;95980.25;;;19.46;57.55
22582;BME280;47125;48.542;9.052;2023-09-19T23:26:59;95988.13;;;19.42;57.72
22582;BME280;47125;48.542;9.052;2023-09-19T23:37:07;95989.75;;;19.43;57.04
22582;BME280;47125;48.542;9.052;2023-09-19T23:47:11;95982.00;;;19.55;57.33
22582;BME280;47125;48.542;9.052;2023-09-19T23:57:14;95993.78;;;19.46;57.40
